KABE/ABE METAR and TAF weather

Enter ICAO airport designator
Station Type Date Time Source
KABE METAR 2022/08/16 17:51 UTC NOAA

KABE 161751Z AUTO 06007KT 020V090 10SM SCT070 28/09 A3001 RMK AO2 SLP159 T02780094 10289 20183 58006


Station Type Date Time Source
KABE Decoded METAR 2022/08/16 17:51 UTC NOAA

LEHIGH VALLEY INTERNATIONAL AIRPORT, PA, United States (KABE) 40-39N 075-27W 114M
Aug 16, 2022 - 01:51 PM EDT / 2022.08.16 1751 UTC
Wind: from the ENE (060 degrees) at 8 MPH (7 KT) (direction variable):0
Visibility: 10 mile(s):0
Sky conditions: partly cloudy
Temperature: 82.0 F (27.8 C)
Dew Point: 48.9 F (9.4 C)
Relative Humidity: 31%
Pressure (altimeter): 30.01 in. Hg (1016 hPa)
Pressure tendency: 0.02 inches (0.6 hPa) lower than three hours ago
ob: KABE 161751Z AUTO 06007KT 020V090 10SM SCT070 28/09 A3001 RMK AO2 SLP159 T02780094 10289 20183 58006
cycle: 18

Station Type Date Time Source
KABE TAF 2022/08/16 18:24 UTC NOAA

TAF KABE 161721Z 1618/1718 08010G18KT P6SM SCT050 BKN250
FM162200 10008KT P6SM FEW050 SCT250
FM170000 VRB03KT P6SM SCT250
FM170900 VRB03KT P6SM FEW250
FM171300 02005KT P6SM SCT250
FM171600 05005KT P6SM FEW050 SCT250

Example: see airport list